Time;durP1;ratioP1;P1;durP2;ratioP2;P2;SDS_P1;SDS_P2;PMS_P1;PMS_P2;Temp;Humidity;BMP_temperature;BMP_pressure;BME280_temperature;BME280_humidity;BME280_pressure;Samples;Min_cycle;Max_cycle;Signal;HPM_P1;HPM_P2
2023/02/07 00:01:37;;;;;;;;;8.75;6.50;;;;;;;;119891;1182;25057;-58
2023/02/07 00:04:05;;;;;;;;;3.25;3.25;;;;;;;;119891;1182;25370;-58
2023/02/07 00:06:35;;;;;;;;;6.00;4.00;;;;;;;;119940;1190;25184;-58
2023/02/07 00:09:05;;;;;;;;;10.33;5.00;;;;;;;;119928;1190;25453;-58
2023/02/07 00:11:35;;;;;;;;;6.00;6.00;;;;;;;;119898;1190;25381;-58
2023/02/07 00:14:04;;;;;;;;;5.00;5.00;;;;;;;;119921;1187;24898;-58
2023/02/07 00:16:32;;;;;;;;;4.33;4.33;;;;;;;;119909;1190;25296;-58
2023/02/07 00:19:01;;;;;;;;;5.25;3.00;;;;;;;;119754;1190;24989;-58
2023/02/07 00:21:29;;;;;;;;;6.00;5.00;;;;;;;;119910;1190;24793;-62
2023/02/07 00:23:58;;;;;;;;;4.25;4.00;;;;;;;;119735;1190;25689;-58
2023/02/07 00:26:27;;;;;;;;;3.50;3.50;;;;;;;;119892;1190;25445;-58
2023/02/07 00:28:56;;;;;;;;;3.00;3.00;;;;;;;;119928;1190;25463;-59
2023/02/07 00:31:27;;;;;;;;;5.25;4.75;;;;;;;;119734;1190;24831;-58
2023/02/07 00:34:00;;;;;;;;;7.33;5.00;;;;;;;;119940;1182;25428;-59
2023/02/07 00:36:30;;;;;;;;;4.75;4.75;;;;;;;;119931;1190;25024;-58
2023/02/07 00:39:04;;;;;;;;;6.00;5.25;;;;;;;;119934;1183;25359;-59
2023/02/07 00:41:33;;;;;;;;;6.25;4.75;;;;;;;;119902;1190;25219;-59
2023/02/07 00:44:01;;;;;;;;;6.00;3.33;;;;;;;;119939;1190;25491;-59
2023/02/07 00:46:30;;;;;;;;;3.50;3.50;;;;;;;;119942;1182;25099;-59
2023/02/07 00:48:58;;;;;;;;;5.33;5.00;;;;;;;;119866;1191;25009;-59
2023/02/07 00:51:27;;;;;;;;;4.75;4.75;;;;;;;;119915;1190;24844;-59
2023/02/07 00:53:56;;;;;;;;;7.00;4.50;;;;;;;;119929;1182;25148;-59
2023/02/07 00:56:28;;;;;;;;;4.00;3.25;;;;;;;;119903;1183;25347;-58
2023/02/07 00:58:56;;;;;;;;;5.50;5.50;;;;;;;;119907;1190;25484;-58
2023/02/07 01:01:26;;;;;;;;;3.75;3.75;;;;;;;;119921;1190;25466;-59
2023/02/07 01:03:54;;;;;;;;;3.00;3.00;;;;;;;;119895;1190;25621;-59
2023/02/07 01:06:23;;;;;;;;;3.67;3.00;;;;;;;;119896;1183;25430;-58
2023/02/07 01:08:56;;;;;;;;;5.33;4.00;;;;;;;;119909;1181;25597;-59
2023/02/07 01:11:25;;;;;;;;;3.33;3.33;;;;;;;;119921;1190;26571;-58
2023/02/07 01:13:54;;;;;;;;;4.25;4.25;;;;;;;;119929;1190;24735;-59
2023/02/07 01:16:26;;;;;;;;;5.75;4.00;;;;;;;;119904;1190;25243;-59
2023/02/07 01:18:54;;;;;;;;;5.33;5.33;;;;;;;;119919;1190;25340;-59
2023/02/07 01:21:24;;;;;;;;;3.67;3.67;;;;;;;;119936;1190;24909;-59
2023/02/07 01:23:56;;;;;;;;;5.50;4.75;;;;;;;;119931;1182;25349;-59
2023/02/07 01:26:24;;;;;;;;;8.00;4.33;;;;;;;;119906;1190;24908;-59
2023/02/07 01:28:54;;;;;;;;;5.00;5.00;;;;;;;;119903;1190;25088;-58
2023/02/07 01:31:23;;;;;;;;;5.25;5.25;;;;;;;;119927;1183;24877;-58
2023/02/07 01:33:56;;;;;;;;;7.00;5.67;;;;;;;;119902;1190;25567;-59
2023/02/07 01:36:26;;;;;;;;;8.00;4.00;;;;;;;;119912;1190;25503;-59
2023/02/07 01:38:55;;;;;;;;;2.00;1.75;;;;;;;;119889;1190;25645;-59
2023/02/07 01:41:25;;;;;;;;;2.75;1.50;;;;;;;;119880;1182;25208;-58
2023/02/07 01:43:58;;;;;;;;;5.75;4.00;;;;;;;;119734;1191;24980;-59
2023/02/07 01:46:28;;;;;;;;;6.00;4.25;;;;;;;;119924;1191;25813;-59
2023/02/07 01:49:00;;;;;;;;;3.67;3.00;;;;;;;;119920;1181;25426;-58
2023/02/07 01:51:30;;;;;;;;;3.00;3.00;;;;;;;;119911;1182;25107;-58
2023/02/07 01:54:01;;;;;;;;;7.33;4.33;;;;;;;;119919;1190;25047;-59
2023/02/07 01:56:29;;;;;;;;;4.00;3.75;;;;;;;;119939;1190;25543;-59
2023/02/07 01:59:01;;;;;;;;;5.00;4.00;;;;;;;;119960;1178;24868;-59
2023/02/07 02:01:29;;;;;;;;;4.50;3.25;;;;;;;;119944;1190;24926;-58
2023/02/07 02:03:57;;;;;;;;;4.50;4.00;;;;;;;;120112;1190;25056;-58
2023/02/07 02:06:27;;;;;;;;;4.67;4.67;;;;;;;;120112;1181;25501;-58
2023/02/07 02:08:58;;;;;;;;;5.00;5.00;;;;;;;;119947;1190;24881;-59
2023/02/07 02:11:35;;;;;;;;;2.00;2.00;;;;;;;;120074;1190;25259;-59
2023/02/07 02:14:06;;;;;;;;;4.50;4.00;;;;;;;;119922;1190;25778;-59
2023/02/07 02:16:47;;;;;;;;;2.25;2.25;;;;;;;;119934;1190;25143;-59
2023/02/07 02:19:22;;;;;;;;;5.25;4.50;;;;;;;;119870;1190;25224;-59
2023/02/07 02:22:14;;;;;;;;;3.00;3.00;;;;;;;;119924;1190;25401;-59
2023/02/07 02:25:04;;;;;;;;;7.00;4.00;;;;;;;;119954;1181;25522;-59
2023/02/07 02:27:44;;;;;;;;;4.00;4.00;;;;;;;;119894;1190;24875;-59
2023/02/07 02:30:21;;;;;;;;;4.67;4.67;;;;;;;;119951;1190;25508;-59
2023/02/07 02:33:02;;;;;;;;;4.50;3.50;;;;;;;;119940;1190;24920;-59
2023/02/07 02:35:40;;;;;;;;;3.25;3.00;;;;;;;;119940;1182;25141;-59
2023/02/07 02:38:14;;;;;;;;;6.00;5.00;;;;;;;;119913;1190;24771;-59
2023/02/07 02:40:52;;;;;;;;;4.00;4.00;;;;;;;;120106;1181;25547;-59
2023/02/07 02:43:28;;;;;;;;;4.25;4.00;;;;;;;;120112;1190;25048;-60
2023/02/07 02:46:07;;;;;;;;;4.00;4.00;;;;;;;;119913;1190;25497;-59
2023/02/07 02:48:36;;;;;;;;;3.50;3.50;;;;;;;;119736;1183;25077;-59
2023/02/07 02:51:05;;;;;;;;;5.00;4.00;;;;;;;;119727;1183;24971;-59
2023/02/07 02:53:33;;;;;;;;;4.33;4.33;;;;;;;;119928;1190;24745;-59
2023/02/07 02:56:36;;;;;;;;;8.67;5.67;;;;;;;;119887;1190;24817;-59
2023/02/07 02:59:40;;;;;;;;;2.75;2.75;;;;;;;;119915;1190;25131;-59
2023/02/07 03:02:14;;;;;;;;;4.00;4.00;;;;;;;;119812;1189;25240;-59
2023/02/07 03:05:06;;;;;;;;;4.67;4.67;;;;;;;;119967;1181;25009;-59
2023/02/07 03:07:56;;;;;;;;;3.50;3.50;;;;;;;;119906;1190;24833;-59
2023/02/07 03:10:42;;;;;;;;;6.00;6.00;;;;;;;;119897;1190;25447;-59
2023/02/07 03:13:30;;;;;;;;;3.00;3.00;;;;;;;;119933;1190;24862;-59
2023/02/07 03:16:12;;;;;;;;;4.00;4.00;;;;;;;;119916;1190;25654;-59
2023/02/07 03:19:14;;;;;;;;;6.33;5.00;;;;;;;;119985;1190;24945;-59
2023/02/07 03:21:55;;;;;;;;;4.00;4.00;;;;;;;;119783;1190;24914;-59
2023/02/07 03:24:30;;;;;;;;;4.00;3.75;;;;;;;;119937;1190;25046;-59
2023/02/07 03:27:01;;;;;;;;;4.25;4.00;;;;;;;;120111;1190;25530;-59
2023/02/07 03:29:31;;;;;;;;;6.67;4.33;;;;;;;;119939;1190;25145;-59
2023/02/07 03:32:02;;;;;;;;;4.00;4.00;;;;;;;;120149;1179;26206;-59
2023/02/07 03:34:36;;;;;;;;;3.00;3.00;;;;;;;;119939;1190;24768;-59
2023/02/07 03:37:12;;;;;;;;;3.67;3.67;;;;;;;;120106;1182;24694;-59
2023/02/07 03:39:40;;;;;;;;;2.75;2.75;;;;;;;;120115;1182;25214;-59
2023/02/07 03:42:19;;;;;;;;;3.33;3.33;;;;;;;;120102;1190;25048;-59
2023/02/07 03:44:50;;;;;;;;;4.67;3.33;;;;;;;;119967;1183;25294;-59
2023/02/07 03:47:18;;;;;;;;;4.00;4.00;;;;;;;;119934;1190;25617;-59
2023/02/07 03:49:46;;;;;;;;;5.00;3.00;;;;;;;;119925;1190;25428;-59
2023/02/07 03:52:15;;;;;;;;;5.25;4.00;;;;;;;;120128;1182;25452;-59
2023/02/07 03:54:43;;;;;;;;;6.00;4.33;;;;;;;;119955;1182;25300;-59
2023/02/07 03:57:12;;;;;;;;;3.67;3.67;;;;;;;;119924;1190;25352;-59
2023/02/07 03:59:40;;;;;;;;;4.67;4.67;;;;;;;;119733;1187;25561;-59
2023/02/07 04:02:08;;;;;;;;;3.33;2.33;;;;;;;;119896;1190;25157;-59
2023/02/07 04:04:37;;;;;;;;;3.25;3.25;;;;;;;;119924;1182;24779;-59
2023/02/07 04:07:05;;;;;;;;;2.50;2.50;;;;;;;;119898;1182;25406;-59
2023/02/07 04:09:33;;;;;;;;;5.00;4.00;;;;;;;;119927;1190;25611;-59
2023/02/07 04:12:03;;;;;;;;;4.00;4.00;;;;;;;;119914;1177;25434;-59
2023/02/07 04:14:31;;;;;;;;;3.33;3.33;;;;;;;;119927;1190;25633;-59
2023/02/07 04:16:59;;;;;;;;;4.75;3.75;;;;;;;;119904;1190;24972;-59
2023/02/07 04:19:27;;;;;;;;;3.75;2.00;;;;;;;;119932;1190;25093;-58
2023/02/07 04:21:56;;;;;;;;;4.00;3.00;;;;;;;;119917;1182;25398;-59
2023/02/07 04:24:24;;;;;;;;;6.33;4.33;;;;;;;;119929;1190;25091;-59
2023/02/07 04:26:53;;;;;;;;;4.67;4.67;;;;;;;;119925;1190;25110;-59
2023/02/07 04:29:21;;;;;;;;;5.50;4.50;;;;;;;;119916;1181;24826;-59
2023/02/07 04:31:49;;;;;;;;;2.67;2.33;;;;;;;;119906;1190;25384;-59
2023/02/07 04:34:18;;;;;;;;;5.00;4.00;;;;;;;;119935;1190;25180;-59
2023/02/07 04:36:46;;;;;;;;;3.25;3.25;;;;;;;;119928;1190;25253;-59
2023/02/07 04:39:14;;;;;;;;;4.00;4.00;;;;;;;;119922;1190;25383;-59
2023/02/07 04:41:42;;;;;;;;;3.50;3.50;;;;;;;;119910;1186;25414;-59
2023/02/07 04:44:11;;;;;;;;;3.25;3.25;;;;;;;;120085;1182;25587;-59
2023/02/07 04:46:39;;;;;;;;;3.00;3.00;;;;;;;;120120;1183;25390;-59
2023/02/07 04:49:07;;;;;;;;;4.00;4.00;;;;;;;;120108;1185;25532;-59
2023/02/07 04:51:36;;;;;;;;;3.67;3.67;;;;;;;;119932;1190;25023;-59
2023/02/07 04:54:04;;;;;;;;;3.00;3.00;;;;;;;;119931;1183;25479;-59
2023/02/07 04:56:32;;;;;;;;;3.67;3.00;;;;;;;;120117;1190;25620;-59
2023/02/07 04:59:03;;;;;;;;;3.00;3.00;;;;;;;;120051;1190;24799;-60
2023/02/07 05:01:31;;;;;;;;;5.33;2.33;;;;;;;;119889;1190;25096;-60
2023/02/07 05:04:00;;;;;;;;;3.00;3.00;;;;;;;;119888;1190;25132;-59
2023/02/07 05:06:29;;;;;;;;;5.50;4.00;;;;;;;;119939;1182;25149;-60
2023/02/07 05:08:58;;;;;;;;;3.50;2.50;;;;;;;;119911;1177;24770;-60
2023/02/07 05:11:26;;;;;;;;;3.00;3.00;;;;;;;;119952;1182;25512;-60
2023/02/07 05:13:54;;;;;;;;;2.00;2.00;;;;;;;;119902;1190;24981;-59
2023/02/07 05:16:22;;;;;;;;;5.00;4.25;;;;;;;;119923;1187;25629;-60
2023/02/07 05:18:51;;;;;;;;;3.50;3.00;;;;;;;;119915;1190;25137;-60
2023/02/07 05:21:19;;;;;;;;;4.00;3.00;;;;;;;;119924;1190;25406;-59
2023/02/07 05:23:47;;;;;;;;;3.50;3.00;;;;;;;;119909;1182;25543;-60
2023/02/07 05:26:16;;;;;;;;;4.75;4.75;;;;;;;;119911;1190;26020;-60
2023/02/07 05:28:44;;;;;;;;;4.00;4.00;;;;;;;;119939;1181;25350;-60
2023/02/07 05:31:13;;;;;;;;;5.33;4.00;;;;;;;;119890;1190;25023;-60
2023/02/07 05:33:41;;;;;;;;;4.00;4.00;;;;;;;;119903;1190;25145;-60
2023/02/07 05:36:09;;;;;;;;;2.33;2.33;;;;;;;;119914;1190;25196;-59
2023/02/07 05:38:38;;;;;;;;;4.00;4.00;;;;;;;;119916;1190;24913;-60
2023/02/07 05:41:06;;;;;;;;;5.67;2.33;;;;;;;;119897;1190;25523;-60
2023/02/07 05:43:34;;;;;;;;;4.00;4.00;;;;;;;;119903;1182;25530;-59
2023/02/07 05:46:05;;;;;;;;;5.50;4.75;;;;;;;;119917;1190;25348;-59
2023/02/07 05:48:33;;;;;;;;;3.33;3.33;;;;;;;;119918;1190;25553;-60
2023/02/07 05:51:02;;;;;;;;;4.00;3.00;;;;;;;;119929;1190;24806;-59
2023/02/07 05:53:30;;;;;;;;;6.00;4.67;;;;;;;;119927;1182;25212;-60
2023/02/07 05:55:58;;;;;;;;;2.75;2.75;;;;;;;;120064;1190;24791;-59
2023/02/07 05:58:27;;;;;;;;;3.00;3.00;;;;;;;;120101;1190;25078;-59
2023/02/07 06:00:55;;;;;;;;;5.00;5.00;;;;;;;;120100;1182;25149;-59
2023/02/07 06:03:23;;;;;;;;;4.50;4.50;;;;;;;;120088;1188;25278;-59
2023/02/07 06:05:52;;;;;;;;;4.25;4.25;;;;;;;;119927;1189;25106;-59
2023/02/07 06:08:20;;;;;;;;;3.50;2.25;;;;;;;;120101;1190;25579;-59
2023/02/07 06:10:48;;;;;;;;;6.00;5.25;;;;;;;;120071;1182;25561;-58
2023/02/07 06:13:17;;;;;;;;;4.25;4.25;;;;;;;;120102;1190;24827;-67
2023/02/07 06:15:45;;;;;;;;;4.67;4.33;;;;;;;;120089;1190;25139;-60
2023/02/07 06:18:13;;;;;;;;;4.25;4.00;;;;;;;;119956;1182;24773;-60
2023/02/07 06:20:41;;;;;;;;;5.33;4.67;;;;;;;;119941;1179;24867;-58
2023/02/07 06:23:10;;;;;;;;;9.67;6.33;;;;;;;;119909;1182;25635;-59
2023/02/07 06:25:38;;;;;;;;;4.67;3.67;;;;;;;;120040;1190;25369;-61
2023/02/07 06:28:07;;;;;;;;;5.50;4.50;;;;;;;;120098;1190;25104;-60
2023/02/07 06:30:35;;;;;;;;;6.00;4.00;;;;;;;;120033;1190;25606;-59
2023/02/07 06:33:03;;;;;;;;;4.33;4.00;;;;;;;;120123;1189;25798;-60
2023/02/07 06:35:32;;;;;;;;;11.75;6.00;;;;;;;;119988;1178;25475;-59
2023/02/07 06:38:00;;;;;;;;;11.00;9.00;;;;;;;;119940;1190;25678;-60
2023/02/07 06:40:28;;;;;;;;;10.00;8.75;;;;;;;;120020;1188;25202;-59
2023/02/07 06:42:56;;;;;;;;;11.50;9.00;;;;;;;;119994;1190;24788;-60
2023/02/07 06:45:25;;;;;;;;;9.75;7.25;;;;;;;;120081;1190;25535;-59
2023/02/07 06:47:53;;;;;;;;;6.50;6.50;;;;;;;;120115;1190;25668;-60
2023/02/07 06:50:21;;;;;;;;;14.00;8.67;;;;;;;;120100;1182;25010;-59
2023/02/07 06:52:49;;;;;;;;;9.00;8.00;;;;;;;;120103;1190;25371;-60
2023/02/07 06:55:18;;;;;;;;;6.75;3.50;;;;;;;;120129;1190;25940;-60
2023/02/07 06:57:46;;;;;;;;;10.00;8.25;;;;;;;;120121;1181;25107;-59
2023/02/07 07:00:15;;;;;;;;;10.33;7.67;;;;;;;;120100;1190;25462;-60
2023/02/07 07:02:43;;;;;;;;;6.00;6.00;;;;;;;;120132;1181;25174;-60
2023/02/07 07:05:12;;;;;;;;;6.25;5.75;;;;;;;;120118;1190;25337;-60
2023/02/07 07:07:43;;;;;;;;;9.67;7.00;;;;;;;;120115;1190;25272;-60
2023/02/07 07:10:12;;;;;;;;;7.50;6.75;;;;;;;;120090;1189;25576;-60
2023/02/07 07:12:40;;;;;;;;;3.75;3.75;;;;;;;;120102;1190;24803;-59
2023/02/07 07:15:09;;;;;;;;;7.33;4.00;;;;;;;;120110;1190;25502;-59
2023/02/07 07:17:37;;;;;;;;;9.25;4.25;;;;;;;;120114;1190;25084;-60
2023/02/07 07:20:06;;;;;;;;;4.50;2.75;;;;;;;;120121;1182;25176;-60
2023/02/07 07:22:35;;;;;;;;;7.50;4.00;;;;;;;;120115;1189;25425;-60
2023/02/07 07:25:03;;;;;;;;;9.50;6.50;;;;;;;;119924;1190;25040;-59
2023/02/07 07:27:32;;;;;;;;;10.00;7.00;;;;;;;;119958;1190;24971;-59
2023/02/07 07:30:00;;;;;;;;;7.25;6.00;;;;;;;;119942;1190;25764;-59
2023/02/07 07:32:28;;;;;;;;;6.33;6.00;;;;;;;;119955;1190;25078;-59
2023/02/07 07:35:02;;;;;;;;;8.00;7.00;;;;;;;;120115;1190;25616;-59
2023/02/07 07:37:31;;;;;;;;;8.00;6.00;;;;;;;;119941;1190;24864;-59
2023/02/07 07:39:59;;;;;;;;;13.50;7.00;;;;;;;;119947;1190;25090;-59
2023/02/07 07:42:28;;;;;;;;;7.00;7.00;;;;;;;;120113;1185;25267;-59
2023/02/07 07:44:56;;;;;;;;;9.00;7.00;;;;;;;;120104;1190;25317;-59
2023/02/07 07:47:26;;;;;;;;;7.00;5.67;;;;;;;;120133;1182;25508;-59
2023/02/07 07:49:54;;;;;;;;;6.75;5.25;;;;;;;;120115;1190;24833;-59
2023/02/07 07:52:23;;;;;;;;;6.00;6.00;;;;;;;;120112;1189;26436;-59
2023/02/07 07:54:51;;;;;;;;;7.00;7.00;;;;;;;;120105;1190;25262;-60
2023/02/07 07:57:19;;;;;;;;;6.25;5.25;;;;;;;;120111;1190;25140;-60
2023/02/07 07:59:48;;;;;;;;;7.50;5.75;;;;;;;;120198;1176;25101;-60
2023/02/07 08:02:16;;;;;;;;;6.75;5.50;;;;;;;;120104;1189;25035;-59
2023/02/07 08:04:44;;;;;;;;;6.50;6.50;;;;;;;;120131;1181;25080;-59
2023/02/07 08:07:13;;;;;;;;;8.00;6.00;;;;;;;;120125;1189;24998;-60
2023/02/07 08:09:41;;;;;;;;;5.00;5.00;;;;;;;;120127;1189;25640;-60
2023/02/07 08:12:09;;;;;;;;;7.33;4.33;;;;;;;;120106;1182;25318;-60
2023/02/07 08:14:38;;;;;;;;;8.50;7.75;;;;;;;;120114;1186;25455;-60
2023/02/07 08:17:06;;;;;;;;;11.50;6.50;;;;;;;;120259;1176;25151;-60
2023/02/07 08:19:34;;;;;;;;;6.50;6.50;;;;;;;;120108;1190;25442;-60
2023/02/07 08:22:02;;;;;;;;;8.75;7.75;;;;;;;;120114;1182;25194;-60
2023/02/07 08:24:31;;;;;;;;;6.00;4.67;;;;;;;;120117;1190;25012;-60
2023/02/07 08:26:59;;;;;;;;;7.33;5.67;;;;;;;;120111;1190;24878;-60
2023/02/07 08:29:28;;;;;;;;;8.50;7.50;;;;;;;;119947;1190;24912;-60
2023/02/07 08:31:56;;;;;;;;;8.00;6.25;;;;;;;;120120;1190;24687;-60
2023/02/07 08:34:27;;;;;;;;;7.33;5.33;;;;;;;;120147;1182;24814;-60
2023/02/07 08:36:56;;;;;;;;;11.67;10.00;;;;;;;;119954;1190;24909;-60
2023/02/07 08:39:24;;;;;;;;;8.50;8.00;;;;;;;;120111;1190;25282;-60
2023/02/07 08:41:52;;;;;;;;;11.50;9.50;;;;;;;;119951;1189;24722;-60
2023/02/07 08:44:20;;;;;;;;;13.00;11.00;;;;;;;;120119;1190;25153;-60
2023/02/07 08:46:49;;;;;;;;;12.00;10.50;;;;;;;;119949;1183;25228;-60
2023/02/07 08:49:17;;;;;;;;;15.75;14.75;;;;;;;;120111;1190;25097;-61
2023/02/07 08:51:45;;;;;;;;;10.67;9.00;;;;;;;;119921;1190;25514;-60
2023/02/07 08:54:14;;;;;;;;;9.50;9.50;;;;;;;;120126;1182;24830;-60
2023/02/07 08:56:42;;;;;;;;;13.00;11.00;;;;;;;;120117;1190;25557;-60
2023/02/07 08:59:10;;;;;;;;;13.00;11.00;;;;;;;;120105;1190;26047;-61
2023/02/07 09:01:39;;;;;;;;;13.25;11.00;;;;;;;;120114;1188;25154;-60
2023/02/07 09:04:09;;;;;;;;;17.00;13.33;;;;;;;;119933;1183;25100;-60
2023/02/07 09:06:38;;;;;;;;;12.67;11.67;;;;;;;;120129;1185;25659;-60
2023/02/07 09:09:06;;;;;;;;;15.33;12.00;;;;;;;;119949;1190;25097;-60
2023/02/07 09:11:35;;;;;;;;;15.00;9.00;;;;;;;;120120;1182;25419;-60
2023/02/07 09:14:04;;;;;;;;;15.25;14.50;;;;;;;;120110;1189;25072;-60
2023/02/07 09:16:32;;;;;;;;;23.50;18.00;;;;;;;;119927;1190;26123;-59
2023/02/07 09:19:00;;;;;;;;;22.67;17.33;;;;;;;;120099;1190;25190;-60
2023/02/07 09:21:30;;;;;;;;;22.75;16.75;;;;;;;;119950;1190;25256;-60
2023/02/07 09:23:58;;;;;;;;;15.00;14.25;;;;;;;;120111;1190;25475;-60
2023/02/07 09:26:26;;;;;;;;;18.00;16.33;;;;;;;;119948;1190;24940;-60
2023/02/07 09:28:55;;;;;;;;;19.75;13.75;;;;;;;;120104;1190;25452;-60
2023/02/07 09:31:23;;;;;;;;;17.67;16.33;;;;;;;;120119;1186;24888;-60
2023/02/07 09:33:52;;;;;;;;;15.00;14.00;;;;;;;;120100;1182;25650;-60
2023/02/07 09:36:26;;;;;;;;;18.67;12.67;;;;;;;;119924;1190;25192;-61
2023/02/07 09:38:54;;;;;;;;;17.25;11.50;;;;;;;;120094;1190;24700;-60
2023/02/07 09:41:29;;;;;;;;;17.00;13.00;;;;;;;;119938;1190;25066;-60
2023/02/07 09:44:04;;;;;;;;;15.67;13.67;;;;;;;;119950;1190;25547;-60
2023/02/07 09:46:44;;;;;;;;;16.00;13.00;;;;;;;;120123;1190;25064;-60
2023/02/07 09:49:15;;;;;;;;;16.00;11.50;;;;;;;;120095;1190;25237;-61
2023/02/07 09:51:44;;;;;;;;;13.25;12.25;;;;;;;;120128;1182;25321;-60
2023/02/07 09:54:43;;;;;;;;;15.00;15.00;;;;;;;;119961;1190;25020;-60
2023/02/07 09:57:45;;;;;;;;;21.67;16.00;;;;;;;;119886;1190;25272;-60
2023/02/07 10:00:22;;;;;;;;;18.75;14.75;;;;;;;;119934;1190;24879;-60
2023/02/07 10:02:54;;;;;;;;;21.25;15.00;;;;;;;;119923;1190;25354;-60
2023/02/07 10:05:28;;;;;;;;;14.75;11.75;;;;;;;;120123;1190;25110;-60
2023/02/07 10:07:56;;;;;;;;;18.00;15.00;;;;;;;;120102;1182;25302;-61
2023/02/07 10:10:31;;;;;;;;;18.00;13.25;;;;;;;;120096;1190;25464;-60
2023/02/07 10:13:09;;;;;;;;;17.50;13.00;;;;;;;;120104;1186;25327;-61
2023/02/07 10:16:12;;;;;;;;;19.25;16.00;;;;;;;;119877;1187;25022;-60
2023/02/07 10:19:00;;;;;;;;;16.00;12.00;;;;;;;;119931;1182;25321;-61
2023/02/07 10:21:48;;;;;;;;;14.33;11.00;;;;;;;;119946;1190;25194;-61
2023/02/07 10:24:53;;;;;;;;;15.33;12.00;;;;;;;;120096;1190;25712;-61
2023/02/07 10:27:34;;;;;;;;;15.75;12.25;;;;;;;;120115;1190;25024;-61
2023/02/07 10:30:08;;;;;;;;;14.25;13.00;;;;;;;;119950;1190;25016;-61
2023/02/07 10:32:38;;;;;;;;;19.50;13.75;;;;;;;;120094;1182;24750;-61
2023/02/07 10:35:21;;;;;;;;;13.00;12.00;;;;;;;;119909;1189;25317;-61
2023/02/07 10:37:53;;;;;;;;;11.33;9.67;;;;;;;;120129;1182;25033;-61
2023/02/07 10:40:49;;;;;;;;;13.25;10.50;;;;;;;;119931;1190;25508;-61
2023/02/07 10:43:27;;;;;;;;;18.75;14.25;;;;;;;;119802;1190;25078;-61
2023/02/07 10:46:04;;;;;;;;;12.25;10.75;;;;;;;;119885;1179;25562;-61
2023/02/07 10:48:36;;;;;;;;;13.00;10.00;;;;;;;;119946;1190;25679;-61
2023/02/07 10:51:34;;;;;;;;;14.00;11.00;;;;;;;;119948;1190;25316;-61
2023/02/07 10:54:06;;;;;;;;;16.00;13.00;;;;;;;;120116;1181;24998;-61
2023/02/07 10:56:42;;;;;;;;;12.00;10.50;;;;;;;;120113;1190;25670;-61
2023/02/07 10:59:37;;;;;;;;;10.00;10.00;;;;;;;;120106;1190;24939;-61
2023/02/07 11:02:31;;;;;;;;;9.00;9.00;;;;;;;;119947;1190;25510;-61
2023/02/07 11:05:04;;;;;;;;;13.25;11.00;;;;;;;;120081;1182;25561;-61
2023/02/07 11:07:33;;;;;;;;;13.00;10.50;;;;;;;;120120;1182;24695;-61
2023/02/07 11:10:20;;;;;;;;;11.00;11.00;;;;;;;;119949;1182;25373;-61
2023/02/07 11:12:53;;;;;;;;;14.25;13.25;;;;;;;;119941;1183;25480;-61
2023/02/07 11:15:28;;;;;;;;;14.50;11.50;;;;;;;;120112;1190;24744;-61
2023/02/07 11:17:56;;;;;;;;;12.33;12.00;;;;;;;;119928;1190;25127;-60
2023/02/07 11:20:26;;;;;;;;;12.00;11.25;;;;;;;;120122;1182;25672;-61
2023/02/07 11:22:57;;;;;;;;;14.00;12.00;;;;;;;;120114;1190;24890;-61
2023/02/07 11:25:28;;;;;;;;;13.25;12.00;;;;;;;;120107;1190;25329;-61
2023/02/07 11:27:57;;;;;;;;;12.25;9.25;;;;;;;;119944;1182;25378;-61
2023/02/07 11:30:28;;;;;;;;;10.33;10.33;;;;;;;;119953;1182;24872;-61
2023/02/07 11:32:58;;;;;;;;;5.00;5.00;;;;;;;;119938;1190;25175;-60
2023/02/07 11:35:27;;;;;;;;;10.50;10.50;;;;;;;;119946;1182;25524;-60
2023/02/07 11:38:01;;;;;;;;;13.25;11.50;;;;;;;;119937;1190;25474;-60
2023/02/07 11:40:44;;;;;;;;;10.75;9.75;;;;;;;;119937;1190;25372;-61
2023/02/07 11:43:20;;;;;;;;;11.33;9.67;;;;;;;;119947;1190;25582;-61
2023/02/07 11:45:51;;;;;;;;;13.00;12.33;;;;;;;;119924;1190;25470;-61
2023/02/07 11:48:33;;;;;;;;;11.33;8.67;;;;;;;;120092;1190;25723;-60
2023/02/07 11:51:03;;;;;;;;;12.25;11.25;;;;;;;;119920;1190;25611;-61
2023/02/07 11:53:50;;;;;;;;;13.75;11.75;;;;;;;;119969;1182;25745;-61
2023/02/07 11:56:30;;;;;;;;;13.00;9.00;;;;;;;;120101;1190;25120;-60
2023/02/07 11:59:03;;;;;;;;;7.67;7.00;;;;;;;;120105;1190;25110;-60
2023/02/07 12:01:33;;;;;;;;;14.33;10.67;;;;;;;;119957;1182;25594;-60
2023/02/07 12:04:19;;;;;;;;;15.67;10.67;;;;;;;;119942;1190;25592;-60
2023/02/07 12:07:12;;;;;;;;;10.25;9.00;;;;;;;;120121;1190;25296;-60
2023/02/07 12:09:54;;;;;;;;;12.00;9.75;;;;;;;;119904;1190;24785;-60
2023/02/07 12:12:35;;;;;;;;;12.00;10.00;;;;;;;;120100;1182;24944;-60
2023/02/07 12:15:07;;;;;;;;;10.50;9.50;;;;;;;;119941;1182;24820;-60
2023/02/07 12:17:56;;;;;;;;;12.00;10.50;;;;;;;;120091;1190;25600;-60
2023/02/07 12:20:26;;;;;;;;;10.00;9.25;;;;;;;;120108;1183;25531;-59
2023/02/07 12:23:21;;;;;;;;;13.25;12.00;;;;;;;;119939;1190;25644;-60
2023/02/07 12:26:20;;;;;;;;;11.33;9.33;;;;;;;;119986;1183;24759;-59
2023/02/07 12:28:49;;;;;;;;;12.75;11.00;;;;;;;;120133;1182;25526;-60
2023/02/07 12:31:26;;;;;;;;;11.00;11.00;;;;;;;;120123;1190;24783;-59
2023/02/07 12:34:08;;;;;;;;;12.67;10.00;;;;;;;;119925;1190;25370;-60
2023/02/07 12:36:42;;;;;;;;;9.50;9.00;;;;;;;;120123;1182;25261;-61
2023/02/07 12:39:21;;;;;;;;;11.00;10.00;;;;;;;;119950;1190;25555;-60
2023/02/07 12:41:55;;;;;;;;;13.67;10.00;;;;;;;;119945;1190;24804;-60
2023/02/07 12:44:31;;;;;;;;;8.33;8.00;;;;;;;;119942;1190;25529;-60
2023/02/07 12:47:06;;;;;;;;;11.33;10.67;;;;;;;;119971;1190;25614;-60
2023/02/07 12:50:02;;;;;;;;;6.50;6.00;;;;;;;;119957;1183;25641;-60
2023/02/07 12:52:46;;;;;;;;;12.50;10.50;;;;;;;;120192;1190;25188;-60
2023/02/07 12:55:43;;;;;;;;;12.75;10.75;;;;;;;;120207;1190;25458;-59
2023/02/07 12:58:49;;;;;;;;;12.33;12.00;;;;;;;;119969;1187;25115;-60
2023/02/07 13:01:31;;;;;;;;;10.25;10.00;;;;;;;;120245;1190;25336;-59
2023/02/07 13:04:32;;;;;;;;;14.00;11.00;;;;;;;;115216;1182;3010719;-60
2023/02/07 13:07:20;;;;;;;;;5.33;4.00;;;;;;;;119986;1190;25127;-60
2023/02/07 13:10:03;;;;;;;;;12.00;11.50;;;;;;;;120201;1189;25026;-59
2023/02/07 13:12:42;;;;;;;;;18.50;12.50;;;;;;;;119971;1190;25250;-60
2023/02/07 13:15:19;;;;;;;;;18.00;13.00;;;;;;;;119964;1190;24882;-60
2023/02/07 13:17:54;;;;;;;;;16.33;12.00;;;;;;;;120196;1190;25584;-60
2023/02/07 13:20:47;;;;;;;;;15.00;13.00;;;;;;;;119961;1190;25742;-60
2023/02/07 13:23:22;;;;;;;;;14.00;12.00;;;;;;;;120200;1190;25471;-59
2023/02/07 13:26:05;;;;;;;;;23.75;18.50;;;;;;;;120192;1190;25680;-60
2023/02/07 13:28:44;;;;;;;;;22.00;18.75;;;;;;;;119982;1182;25646;-60
2023/02/07 13:31:16;;;;;;;;;24.00;19.50;;;;;;;;120002;1190;25312;-60
2023/02/07 13:33:47;;;;;;;;;25.50;22.00;;;;;;;;120212;1190;25227;-60
2023/02/07 13:36:26;;;;;;;;;21.67;19.00;;;;;;;;120199;1190;25406;-59
2023/02/07 13:39:00;;;;;;;;;24.00;21.50;;;;;;;;120229;1177;24946;-59
2023/02/07 13:42:05;;;;;;;;;20.33;17.33;;;;;;;;120202;1190;24970;-59
2023/02/07 13:44:37;;;;;;;;;21.00;21.00;;;;;;;;119798;1190;24978;-59
2023/02/07 13:47:10;;;;;;;;;20.33;18.00;;;;;;;;120002;1182;25983;-59
2023/02/07 13:50:07;;;;;;;;;18.67;16.33;;;;;;;;119984;1190;24787;-59
2023/02/07 13:52:49;;;;;;;;;26.25;20.00;;;;;;;;120165;1189;25134;-60
2023/02/07 13:55:37;;;;;;;;;23.50;22.50;;;;;;;;120204;1190;25231;-60
2023/02/07 14:01:31;;;;;;;;;22.25;18.25;;;;;;;;120189;1190;25024;-60
2023/02/07 14:04:03;;;;;;;;;21.67;20.67;;;;;;;;119983;1190;25586;-60
2023/02/07 14:06:39;;;;;;;;;22.50;19.00;;;;;;;;120204;1190;25459;-60
2023/02/07 14:09:14;;;;;;;;;23.33;21.33;;;;;;;;120193;1190;24895;-60
2023/02/07 14:11:47;;;;;;;;;19.67;19.67;;;;;;;;119958;1183;25364;-61
2023/02/07 14:14:27;;;;;;;;;24.33;22.67;;;;;;;;119949;1190;25200;-61
2023/02/07 14:16:59;;;;;;;;;24.00;22.33;;;;;;;;119970;1182;25565;-61
2023/02/07 14:19:40;;;;;;;;;30.00;23.50;;;;;;;;120200;1190;25589;-61
2023/02/07 14:22:17;;;;;;;;;27.50;23.50;;;;;;;;120140;1181;24794;-60
2023/02/07 14:24:57;;;;;;;;;23.50;21.50;;;;;;;;120155;1181;25323;-61
2023/02/07 14:27:38;;;;;;;;;27.33;25.00;;;;;;;;120143;1182;25793;-61
2023/02/07 14:30:36;;;;;;;;;26.33;24.33;;;;;;;;120094;1190;24891;-61
2023/02/07 14:33:11;;;;;;;;;27.67;24.67;;;;;;;;120185;1189;25667;-62
2023/02/07 14:36:05;;;;;;;;;20.50;16.00;;;;;;;;120212;1190;25591;-61
2023/02/07 14:38:36;;;;;;;;;28.25;22.50;;;;;;;;120053;1190;24959;-62
2023/02/07 14:41:15;;;;;;;;;23.33;21.67;;;;;;;;120203;1190;24887;-61
2023/02/07 14:43:48;;;;;;;;;24.50;22.50;;;;;;;;119961;1188;25292;-61
2023/02/07 14:46:56;;;;;;;;;22.33;20.33;;;;;;;;120006;1190;25187;-62
2023/02/07 14:49:25;;;;;;;;;19.75;19.50;;;;;;;;119870;1190;25080;-62
2023/02/07 14:51:58;;;;;;;;;22.67;21.00;;;;;;;;119907;1190;25441;-61
2023/02/07 14:54:41;;;;;;;;;22.67;22.33;;;;;;;;119964;1181;25119;-61
2023/02/07 14:57:24;;;;;;;;;25.75;20.00;;;;;;;;119953;1182;24854;-60
2023/02/07 15:00:01;;;;;;;;;24.00;22.00;;;;;;;;119933;1182;24820;-61
2023/02/07 15:02:49;;;;;;;;;23.00;22.50;;;;;;;;119936;1186;24881;-61